sensor_id;sensor_type;location;lat;lon;timestamp;P1;durP1;ratioP1;P2;durP2;ratioP2
83719;SDS011;73702;49.668;8.544;2024-03-23T00:56:01;18.17;;;7.60;;
83719;SDS011;73702;49.668;8.544;2024-03-23T00:58:27;30.92;;;8.68;;
83719;SDS011;73702;49.668;8.544;2024-03-23T01:00:52;25.67;;;8.02;;
83719;SDS011;73702;49.668;8.544;2024-03-23T01:03:17;34.63;;;8.35;;
83719;SDS011;73702;49.668;8.544;2024-03-23T01:05:43;24.83;;;9.00;;
83719;SDS011;73702;49.668;8.544;2024-03-23T01:08:08;19.67;;;7.97;;
83719;SDS011;73702;49.668;8.544;2024-03-23T01:10:34;30.60;;;8.00;;
83719;SDS011;73702;49.668;8.544;2024-03-23T01:12:59;30.38;;;8.50;;
83719;SDS011;73702;49.668;8.544;2024-03-23T01:15:24;26.80;;;8.02;;
83719;SDS011;73702;49.668;8.544;2024-03-23T01:17:50;26.45;;;8.45;;
83719;SDS011;73702;49.668;8.544;2024-03-23T01:20:15;22.27;;;7.80;;
83719;SDS011;73702;49.668;8.544;2024-03-23T01:22:40;21.23;;;7.22;;
83719;SDS011;73702;49.668;8.544;2024-03-23T01:25:06;19.95;;;6.70;;
83719;SDS011;73702;49.668;8.544;2024-03-23T01:27:31;29.80;;;8.20;;
83719;SDS011;73702;49.668;8.544;2024-03-23T01:29:56;21.25;;;7.90;;
83719;SDS011;73702;49.668;8.544;2024-03-23T01:32:22;35.13;;;8.05;;
83719;SDS011;73702;49.668;8.544;2024-03-23T01:34:47;20.95;;;7.25;;
83719;SDS011;73702;49.668;8.544;2024-03-23T01:37:13;27.77;;;8.13;;
83719;SDS011;73702;49.668;8.544;2024-03-23T01:39:38;35.35;;;8.55;;
83719;SDS011;73702;49.668;8.544;2024-03-23T01:42:03;20.90;;;7.50;;
83719;SDS011;73702;49.668;8.544;2024-03-23T01:44:29;31.10;;;7.72;;
83719;SDS011;73702;49.668;8.544;2024-03-23T01:46:54;21.00;;;8.15;;
83719;SDS011;73702;49.668;8.544;2024-03-23T01:49:20;23.10;;;6.97;;
83719;SDS011;73702;49.668;8.544;2024-03-23T01:51:45;22.25;;;7.15;;
83719;SDS011;73702;49.668;8.544;2024-03-23T01:54:11;22.48;;;7.10;;
83719;SDS011;73702;49.668;8.544;2024-03-23T01:56:36;32.33;;;8.50;;
83719;SDS011;73702;49.668;8.544;2024-03-23T01:59:02;20.70;;;7.60;;
83719;SDS011;73702;49.668;8.544;2024-03-23T02:01:27;30.30;;;8.48;;
83719;SDS011;73702;49.668;8.544;2024-03-23T02:03:53;19.63;;;7.10;;
83719;SDS011;73702;49.668;8.544;2024-03-23T02:06:18;21.27;;;7.68;;
83719;SDS011;73702;49.668;8.544;2024-03-23T02:08:44;19.77;;;7.03;;
83719;SDS011;73702;49.668;8.544;2024-03-23T02:11:09;20.67;;;7.00;;
83719;SDS011;73702;49.668;8.544;2024-03-23T02:13:35;33.78;;;8.63;;
83719;SDS011;73702;49.668;8.544;2024-03-23T02:16:01;26.13;;;8.30;;
83719;SDS011;73702;49.668;8.544;2024-03-23T02:18:26;32.45;;;9.05;;
83719;SDS011;73702;49.668;8.544;2024-03-23T02:20:52;21.58;;;7.80;;
83719;SDS011;73702;49.668;8.544;2024-03-23T02:23:17;23.33;;;8.18;;
83719;SDS011;73702;49.668;8.544;2024-03-23T02:25:43;30.88;;;9.75;;
83719;SDS011;73702;49.668;8.544;2024-03-23T02:28:08;22.90;;;7.63;;
83719;SDS011;73702;49.668;8.544;2024-03-23T02:30:34;26.00;;;8.30;;
83719;SDS011;73702;49.668;8.544;2024-03-23T02:32:59;26.67;;;8.20;;
83719;SDS011;73702;49.668;8.544;2024-03-23T02:35:25;31.55;;;8.70;;
83719;SDS011;73702;49.668;8.544;2024-03-23T02:37:50;21.63;;;8.27;;
83719;SDS011;73702;49.668;8.544;2024-03-23T02:40:16;32.53;;;8.98;;
83719;SDS011;73702;49.668;8.544;2024-03-23T02:42:42;33.50;;;9.32;;
83719;SDS011;73702;49.668;8.544;2024-03-23T02:45:07;24.10;;;8.95;;
83719;SDS011;73702;49.668;8.544;2024-03-23T02:47:33;32.67;;;10.35;;
83719;SDS011;73702;49.668;8.544;2024-03-23T02:49:58;29.98;;;9.57;;
83719;SDS011;73702;49.668;8.544;2024-03-23T02:52:24;24.40;;;8.85;;
83719;SDS011;73702;49.668;8.544;2024-03-23T02:54:49;31.83;;;9.52;;
83719;SDS011;73702;49.668;8.544;2024-03-23T02:57:14;30.67;;;10.10;;
83719;SDS011;73702;49.668;8.544;2024-03-23T02:59:40;38.60;;;10.13;;
83719;SDS011;73702;49.668;8.544;2024-03-23T03:02:05;25.35;;;9.25;;
83719;SDS011;73702;49.668;8.544;2024-03-23T03:04:30;20.95;;;8.27;;
83719;SDS011;73702;49.668;8.544;2024-03-23T03:06:56;25.80;;;9.55;;
83719;SDS011;73702;49.668;8.544;2024-03-23T03:09:21;27.85;;;8.75;;
83719;SDS011;73702;49.668;8.544;2024-03-23T03:11:47;38.13;;;10.38;;
83719;SDS011;73702;49.668;8.544;2024-03-23T03:14:12;28.45;;;10.35;;
83719;SDS011;73702;49.668;8.544;2024-03-23T03:16:38;35.70;;;9.52;;
83719;SDS011;73702;49.668;8.544;2024-03-23T03:19:03;29.60;;;9.95;;
83719;SDS011;73702;49.668;8.544;2024-03-23T03:21:28;36.30;;;9.95;;
83719;SDS011;73702;49.668;8.544;2024-03-23T03:23:54;27.40;;;8.65;;
83719;SDS011;73702;49.668;8.544;2024-03-23T03:26:19;28.15;;;9.20;;
83719;SDS011;73702;49.668;8.544;2024-03-23T03:28:45;37.47;;;9.50;;
83719;SDS011;73702;49.668;8.544;2024-03-23T03:31:10;31.25;;;9.88;;
83719;SDS011;73702;49.668;8.544;2024-03-23T03:33:35;33.20;;;9.82;;
83719;SDS011;73702;49.668;8.544;2024-03-23T03:36:01;30.20;;;9.52;;
83719;SDS011;73702;49.668;8.544;2024-03-23T03:38:26;28.70;;;8.60;;
83719;SDS011;73702;49.668;8.544;2024-03-23T03:40:51;30.23;;;9.32;;
83719;SDS011;73702;49.668;8.544;2024-03-23T03:43:17;27.50;;;9.73;;
83719;SDS011;73702;49.668;8.544;2024-03-23T03:45:42;38.33;;;9.60;;
83719;SDS011;73702;49.668;8.544;2024-03-23T03:48:07;29.05;;;8.65;;
83719;SDS011;73702;49.668;8.544;2024-03-23T03:50:33;28.15;;;9.38;;
83719;SDS011;73702;49.668;8.544;2024-03-23T03:52:58;30.73;;;9.45;;
83719;SDS011;73702;49.668;8.544;2024-03-23T03:55:24;29.65;;;9.93;;
83719;SDS011;73702;49.668;8.544;2024-03-23T03:57:49;39.83;;;10.35;;
83719;SDS011;73702;49.668;8.544;2024-03-23T04:00:14;39.50;;;10.95;;
83719;SDS011;73702;49.668;8.544;2024-03-23T04:02:40;41.25;;;11.23;;
83719;SDS011;73702;49.668;8.544;2024-03-23T04:05:06;32.50;;;9.90;;
83719;SDS011;73702;49.668;8.544;2024-03-23T04:07:31;34.40;;;10.30;;
83719;SDS011;73702;49.668;8.544;2024-03-23T04:09:57;32.25;;;10.52;;
83719;SDS011;73702;49.668;8.544;2024-03-23T04:12:23;30.63;;;10.02;;
83719;SDS011;73702;49.668;8.544;2024-03-23T04:14:48;42.80;;;11.15;;
83719;SDS011;73702;49.668;8.544;2024-03-23T04:17:14;28.00;;;8.55;;
83719;SDS011;73702;49.668;8.544;2024-03-23T04:19:39;34.58;;;10.70;;
83719;SDS011;73702;49.668;8.544;2024-03-23T04:22:04;31.42;;;10.43;;
83719;SDS011;73702;49.668;8.544;2024-03-23T04:24:30;26.10;;;9.85;;
83719;SDS011;73702;49.668;8.544;2024-03-23T04:26:55;40.53;;;11.27;;
83719;SDS011;73702;49.668;8.544;2024-03-23T04:29:20;30.48;;;9.07;;
83719;SDS011;73702;49.668;8.544;2024-03-23T04:31:46;33.50;;;9.98;;
83719;SDS011;73702;49.668;8.544;2024-03-23T04:34:11;34.17;;;8.82;;
83719;SDS011;73702;49.668;8.544;2024-03-23T04:36:36;35.97;;;9.88;;
83719;SDS011;73702;49.668;8.544;2024-03-23T04:39:02;24.90;;;8.85;;
83719;SDS011;73702;49.668;8.544;2024-03-23T04:41:27;35.38;;;10.57;;
83719;SDS011;73702;49.668;8.544;2024-03-23T04:43:53;38.28;;;9.18;;
83719;SDS011;73702;49.668;8.544;2024-03-23T04:46:18;33.95;;;8.98;;
83719;SDS011;73702;49.668;8.544;2024-03-23T04:48:43;35.17;;;10.85;;
83719;SDS011;73702;49.668;8.544;2024-03-23T04:51:09;30.08;;;9.27;;
83719;SDS011;73702;49.668;8.544;2024-03-23T04:53:34;28.95;;;10.20;;
83719;SDS011;73702;49.668;8.544;2024-03-23T04:55:59;29.20;;;10.45;;
83719;SDS011;73702;49.668;8.544;2024-03-23T04:58:25;24.13;;;6.55;;
83719;SDS011;73702;49.668;8.544;2024-03-23T05:00:56;28.00;;;4.80;;
83719;SDS011;73702;49.668;8.544;2024-03-23T05:03:22;20.05;;;3.45;;
83719;SDS011;73702;49.668;8.544;2024-03-23T05:05:48;31.98;;;4.75;;
83719;SDS011;73702;49.668;8.544;2024-03-23T05:08:14;13.88;;;3.00;;
83719;SDS011;73702;49.668;8.544;2024-03-23T05:10:40;15.90;;;3.17;;
83719;SDS011;73702;49.668;8.544;2024-03-23T05:13:06;16.38;;;2.70;;
83719;SDS011;73702;49.668;8.544;2024-03-23T05:15:31;10.73;;;2.17;;
83719;SDS011;73702;49.668;8.544;2024-03-23T05:17:56;20.45;;;2.88;;
83719;SDS011;73702;49.668;8.544;2024-03-23T05:20:22;19.33;;;2.50;;
83719;SDS011;73702;49.668;8.544;2024-03-23T05:22:47;25.95;;;3.58;;
83719;SDS011;73702;49.668;8.544;2024-03-23T05:25:12;14.70;;;2.22;;
83719;SDS011;73702;49.668;8.544;2024-03-23T05:27:38;11.30;;;1.88;;
83719;SDS011;73702;49.668;8.544;2024-03-23T05:30:03;13.65;;;2.17;;
83719;SDS011;73702;49.668;8.544;2024-03-23T05:32:29;18.38;;;2.58;;
83719;SDS011;73702;49.668;8.544;2024-03-23T05:34:54;29.73;;;4.53;;
83719;SDS011;73702;49.668;8.544;2024-03-23T05:37:20;20.80;;;3.35;;
83719;SDS011;73702;49.668;8.544;2024-03-23T05:39:45;13.27;;;2.78;;
83719;SDS011;73702;49.668;8.544;2024-03-23T05:42:11;19.92;;;3.13;;
83719;SDS011;73702;49.668;8.544;2024-03-23T05:44:36;15.68;;;2.30;;
83719;SDS011;73702;49.668;8.544;2024-03-23T05:47:01;23.73;;;3.17;;
83719;SDS011;73702;49.668;8.544;2024-03-23T05:49:27;22.00;;;2.13;;
83719;SDS011;73702;49.668;8.544;2024-03-23T05:51:52;21.30;;;3.17;;
83719;SDS011;73702;49.668;8.544;2024-03-23T05:54:17;18.30;;;2.50;;
83719;SDS011;73702;49.668;8.544;2024-03-23T05:56:43;12.30;;;2.00;;
83719;SDS011;73702;49.668;8.544;2024-03-23T05:59:08;13.77;;;1.77;;
83719;SDS011;73702;49.668;8.544;2024-03-23T06:01:33;13.15;;;2.13;;
83719;SDS011;73702;49.668;8.544;2024-03-23T06:03:59;24.85;;;3.00;;
83719;SDS011;73702;49.668;8.544;2024-03-23T06:06:24;12.07;;;2.20;;
83719;SDS011;73702;49.668;8.544;2024-03-23T06:08:50;17.10;;;2.17;;
83719;SDS011;73702;49.668;8.544;2024-03-23T06:11:15;13.23;;;1.80;;
83719;SDS011;73702;49.668;8.544;2024-03-23T06:13:40;14.93;;;2.08;;
83719;SDS011;73702;49.668;8.544;2024-03-23T06:16:06;22.45;;;2.50;;
83719;SDS011;73702;49.668;8.544;2024-03-23T06:18:31;22.45;;;2.42;;
83719;SDS011;73702;49.668;8.544;2024-03-23T06:20:56;23.35;;;2.50;;
83719;SDS011;73702;49.668;8.544;2024-03-23T06:23:22;13.82;;;1.90;;
83719;SDS011;73702;49.668;8.544;2024-03-23T06:25:47;18.10;;;2.00;;
83719;SDS011;73702;49.668;8.544;2024-03-23T06:28:13;14.07;;;1.83;;
83719;SDS011;73702;49.668;8.544;2024-03-23T06:30:38;10.30;;;1.40;;
83719;SDS011;73702;49.668;8.544;2024-03-23T06:33:04;29.15;;;3.15;;
83719;SDS011;73702;49.668;8.544;2024-03-23T06:35:29;18.10;;;2.15;;
83719;SDS011;73702;49.668;8.544;2024-03-23T06:37:55;20.33;;;2.17;;
83719;SDS011;73702;49.668;8.544;2024-03-23T06:40:20;11.13;;;1.48;;
83719;SDS011;73702;49.668;8.544;2024-03-23T06:42:45;12.63;;;1.70;;
83719;SDS011;73702;49.668;8.544;2024-03-23T06:45:11;14.48;;;1.75;;
83719;SDS011;73702;49.668;8.544;2024-03-23T06:47:36;13.73;;;1.90;;
83719;SDS011;73702;49.668;8.544;2024-03-23T06:50:02;22.95;;;2.83;;
83719;SDS011;73702;49.668;8.544;2024-03-23T06:52:28;15.18;;;1.90;;
83719;SDS011;73702;49.668;8.544;2024-03-23T06:54:53;16.15;;;1.90;;
83719;SDS011;73702;49.668;8.544;2024-03-23T06:57:18;21.42;;;2.65;;
83719;SDS011;73702;49.668;8.544;2024-03-23T06:59:44;10.02;;;1.33;;
83719;SDS011;73702;49.668;8.544;2024-03-23T07:02:09;18.35;;;2.22;;
83719;SDS011;73702;49.668;8.544;2024-03-23T07:04:35;14.13;;;1.70;;
83719;SDS011;73702;49.668;8.544;2024-03-23T07:07:00;21.05;;;2.00;;
83719;SDS011;73702;49.668;8.544;2024-03-23T07:09:26;13.27;;;1.52;;
83719;SDS011;73702;49.668;8.544;2024-03-23T07:11:53;18.08;;;2.00;;
83719;SDS011;73702;49.668;8.544;2024-03-23T07:14:19;11.00;;;1.27;;
83719;SDS011;73702;49.668;8.544;2024-03-23T07:16:44;7.47;;;0.90;;
83719;SDS011;73702;49.668;8.544;2024-03-23T07:19:09;28.63;;;3.08;;
83719;SDS011;73702;49.668;8.544;2024-03-23T07:21:35;12.38;;;1.30;;
83719;SDS011;73702;49.668;8.544;2024-03-23T07:24:00;17.20;;;1.73;;
83719;SDS011;73702;49.668;8.544;2024-03-23T07:26:25;14.85;;;1.55;;
83719;SDS011;73702;49.668;8.544;2024-03-23T07:28:51;11.32;;;1.27;;
83719;SDS011;73702;49.668;8.544;2024-03-23T07:31:16;15.75;;;1.52;;
83719;SDS011;73702;49.668;8.544;2024-03-23T07:33:42;23.08;;;2.38;;
83719;SDS011;73702;49.668;8.544;2024-03-23T07:36:08;23.63;;;2.40;;
83719;SDS011;73702;49.668;8.544;2024-03-23T07:38:34;11.70;;;1.40;;
83719;SDS011;73702;49.668;8.544;2024-03-23T07:41:03;28.92;;;3.00;;
83719;SDS011;73702;49.668;8.544;2024-03-23T07:43:28;17.52;;;2.05;;
83719;SDS011;73702;49.668;8.544;2024-03-23T07:45:54;13.48;;;2.13;;
83719;SDS011;73702;49.668;8.544;2024-03-23T07:48:21;22.48;;;2.90;;
83719;SDS011;73702;49.668;8.544;2024-03-23T07:50:46;10.27;;;1.83;;
83719;SDS011;73702;49.668;8.544;2024-03-23T07:53:12;28.50;;;2.97;;
83719;SDS011;73702;49.668;8.544;2024-03-23T07:55:37;17.42;;;2.60;;
83719;SDS011;73702;49.668;8.544;2024-03-23T07:58:02;29.23;;;3.60;;
83719;SDS011;73702;49.668;8.544;2024-03-23T08:00:28;19.38;;;3.25;;
83719;SDS011;73702;49.668;8.544;2024-03-23T08:02:53;17.00;;;2.88;;
83719;SDS011;73702;49.668;8.544;2024-03-23T08:05:18;15.98;;;2.70;;
83719;SDS011;73702;49.668;8.544;2024-03-23T08:07:44;14.32;;;2.40;;
83719;SDS011;73702;49.668;8.544;2024-03-23T08:10:09;24.92;;;3.33;;
83719;SDS011;73702;49.668;8.544;2024-03-23T08:12:35;13.10;;;1.92;;
83719;SDS011;73702;49.668;8.544;2024-03-23T08:15:00;19.05;;;2.95;;
83719;SDS011;73702;49.668;8.544;2024-03-23T08:17:25;22.98;;;3.10;;
83719;SDS011;73702;49.668;8.544;2024-03-23T08:19:51;8.93;;;1.88;;
83719;SDS011;73702;49.668;8.544;2024-03-23T08:22:16;22.92;;;3.30;;
83719;SDS011;73702;49.668;8.544;2024-03-23T08:24:41;16.08;;;2.80;;
83719;SDS011;73702;49.668;8.544;2024-03-23T08:27:07;21.85;;;3.25;;
83719;SDS011;73702;49.668;8.544;2024-03-23T08:29:32;13.32;;;2.17;;
83719;SDS011;73702;49.668;8.544;2024-03-23T08:31:57;25.50;;;3.40;;
83719;SDS011;73702;49.668;8.544;2024-03-23T08:34:23;14.52;;;2.70;;
83719;SDS011;73702;49.668;8.544;2024-03-23T08:36:48;15.57;;;2.40;;
83719;SDS011;73702;49.668;8.544;2024-03-23T08:39:14;24.45;;;3.20;;
83719;SDS011;73702;49.668;8.544;2024-03-23T08:41:40;23.10;;;3.00;;
83719;SDS011;73702;49.668;8.544;2024-03-23T08:44:05;22.60;;;2.85;;
83719;SDS011;73702;49.668;8.544;2024-03-23T08:46:31;17.70;;;2.58;;
83719;SDS011;73702;49.668;8.544;2024-03-23T08:48:56;12.55;;;2.15;;
83719;SDS011;73702;49.668;8.544;2024-03-23T08:51:22;16.85;;;2.60;;
83719;SDS011;73702;49.668;8.544;2024-03-23T08:53:47;17.08;;;2.60;;
83719;SDS011;73702;49.668;8.544;2024-03-23T08:56:12;26.77;;;3.03;;
83719;SDS011;73702;49.668;8.544;2024-03-23T08:58:38;17.27;;;2.85;;
83719;SDS011;73702;49.668;8.544;2024-03-23T09:01:04;18.20;;;2.58;;
83719;SDS011;73702;49.668;8.544;2024-03-23T09:03:30;19.52;;;2.83;;
83719;SDS011;73702;49.668;8.544;2024-03-23T09:05:55;18.30;;;3.30;;
83719;SDS011;73702;49.668;8.544;2024-03-23T09:08:21;28.83;;;3.85;;
83719;SDS011;73702;49.668;8.544;2024-03-23T09:10:47;17.75;;;2.47;;
83719;SDS011;73702;49.668;8.544;2024-03-23T09:13:12;24.63;;;3.35;;
83719;SDS011;73702;49.668;8.544;2024-03-23T09:15:45;25.58;;;3.00;;
83719;SDS011;73702;49.668;8.544;2024-03-23T09:18:11;28.45;;;3.17;;
83719;SDS011;73702;49.668;8.544;2024-03-23T09:20:36;18.58;;;2.58;;
83719;SDS011;73702;49.668;8.544;2024-03-23T09:23:01;21.00;;;2.70;;
83719;SDS011;73702;49.668;8.544;2024-03-23T09:25:27;16.95;;;2.58;;
83719;SDS011;73702;49.668;8.544;2024-03-23T09:27:52;13.15;;;2.47;;
83719;SDS011;73702;49.668;8.544;2024-03-23T09:30:17;26.05;;;3.72;;
83719;SDS011;73702;49.668;8.544;2024-03-23T09:32:43;19.45;;;2.67;;
83719;SDS011;73702;49.668;8.544;2024-03-23T09:35:09;18.45;;;3.30;;
83719;SDS011;73702;49.668;8.544;2024-03-23T09:37:35;16.38;;;2.83;;
83719;SDS011;73702;49.668;8.544;2024-03-23T09:40:00;18.67;;;3.33;;
83719;SDS011;73702;49.668;8.544;2024-03-23T09:42:25;21.27;;;2.95;;
83719;SDS011;73702;49.668;8.544;2024-03-23T09:44:51;17.55;;;2.75;;
83719;SDS011;73702;49.668;8.544;2024-03-23T09:47:17;32.22;;;4.03;;
83719;SDS011;73702;49.668;8.544;2024-03-23T09:49:42;15.80;;;2.15;;
83719;SDS011;73702;49.668;8.544;2024-03-23T09:52:08;18.33;;;2.50;;
83719;SDS011;73702;49.668;8.544;2024-03-23T09:54:33;25.83;;;3.33;;
83719;SDS011;73702;49.668;8.544;2024-03-23T09:56:59;11.15;;;1.73;;
83719;SDS011;73702;49.668;8.544;2024-03-23T09:59:24;21.70;;;2.70;;
83719;SDS011;73702;49.668;8.544;2024-03-23T10:01:49;21.70;;;2.63;;
83719;SDS011;73702;49.668;8.544;2024-03-23T10:07:19;25.15;;;3.17;;
83719;SDS011;73702;49.668;8.544;2024-03-23T10:09:45;19.13;;;2.53;;
83719;SDS011;73702;49.668;8.544;2024-03-23T10:12:11;16.52;;;2.65;;
83719;SDS011;73702;49.668;8.544;2024-03-23T10:14:37;16.17;;;2.30;;
83719;SDS011;73702;49.668;8.544;2024-03-23T10:17:15;16.85;;;2.20;;
83719;SDS011;73702;49.668;8.544;2024-03-23T10:19:41;14.65;;;2.20;;
83719;SDS011;73702;49.668;8.544;2024-03-23T10:22:07;15.70;;;1.95;;
83719;SDS011;73702;49.668;8.544;2024-03-23T10:24:32;19.45;;;2.58;;
83719;SDS011;73702;49.668;8.544;2024-03-23T10:26:57;16.70;;;1.95;;
83719;SDS011;73702;49.668;8.544;2024-03-23T10:29:23;22.88;;;2.80;;
83719;SDS011;73702;49.668;8.544;2024-03-23T10:31:48;16.92;;;2.45;;
83719;SDS011;73702;49.668;8.544;2024-03-23T10:34:13;15.70;;;2.03;;
83719;SDS011;73702;49.668;8.544;2024-03-23T10:36:39;16.38;;;2.22;;
83719;SDS011;73702;49.668;8.544;2024-03-23T10:39:06;19.48;;;1.95;;
83719;SDS011;73702;49.668;8.544;2024-03-23T10:41:32;21.63;;;2.35;;
83719;SDS011;73702;49.668;8.544;2024-03-23T10:43:58;15.05;;;1.80;;
83719;SDS011;73702;49.668;8.544;2024-03-23T10:46:23;16.90;;;2.20;;
83719;SDS011;73702;49.668;8.544;2024-03-23T10:48:49;17.42;;;2.38;;
83719;SDS011;73702;49.668;8.544;2024-03-23T10:51:14;19.98;;;2.38;;
83719;SDS011;73702;49.668;8.544;2024-03-23T10:53:40;22.05;;;2.53;;
83719;SDS011;73702;49.668;8.544;2024-03-23T10:56:06;13.30;;;2.00;;
83719;SDS011;73702;49.668;8.544;2024-03-23T10:58:33;22.80;;;2.63;;
83719;SDS011;73702;49.668;8.544;2024-03-23T11:01:02;15.20;;;1.88;;
83719;SDS011;73702;49.668;8.544;2024-03-23T11:03:34;23.95;;;2.63;;
83719;SDS011;73702;49.668;8.544;2024-03-23T11:06:00;13.35;;;1.70;;
83719;SDS011;73702;49.668;8.544;2024-03-23T11:08:29;28.35;;;2.83;;
83719;SDS011;73702;49.668;8.544;2024-03-23T11:11:10;17.00;;;2.13;;
83719;SDS011;73702;49.668;8.544;2024-03-23T11:13:36;9.32;;;1.20;;
83719;SDS011;73702;49.668;8.544;2024-03-23T11:18:46;18.55;;;2.33;;
83719;SDS011;73702;49.668;8.544;2024-03-23T11:21:11;15.38;;;2.03;;
83719;SDS011;73702;49.668;8.544;2024-03-23T11:24:13;14.10;;;1.83;;
83719;SDS011;73702;49.668;8.544;2024-03-23T11:26:39;14.73;;;1.70;;
83719;SDS011;73702;49.668;8.544;2024-03-23T11:29:10;19.65;;;2.28;;
83719;SDS011;73702;49.668;8.544;2024-03-23T11:31:36;11.45;;;1.40;;
83719;SDS011;73702;49.668;8.544;2024-03-23T11:34:03;14.90;;;1.73;;
83719;SDS011;73702;49.668;8.544;2024-03-23T11:36:29;22.65;;;2.25;;
83719;SDS011;73702;49.668;8.544;2024-03-23T11:38:54;9.80;;;0.98;;
83719;SDS011;73702;49.668;8.544;2024-03-23T11:41:19;21.42;;;2.00;;
83719;SDS011;73702;49.668;8.544;2024-03-23T11:43:45;19.38;;;1.80;;
83719;SDS011;73702;49.668;8.544;2024-03-23T11:46:11;11.32;;;1.50;;
83719;SDS011;73702;49.668;8.544;2024-03-23T11:48:36;26.33;;;2.72;;
83719;SDS011;73702;49.668;8.544;2024-03-23T11:51:01;15.48;;;1.70;;
83719;SDS011;73702;49.668;8.544;2024-03-23T11:53:27;12.10;;;1.52;;
83719;SDS011;73702;49.668;8.544;2024-03-23T11:55:53;16.55;;;1.77;;
83719;SDS011;73702;49.668;8.544;2024-03-23T11:58:22;22.17;;;2.15;;
83719;SDS011;73702;49.668;8.544;2024-03-23T12:00:51;10.60;;;1.40;;
83719;SDS011;73702;49.668;8.544;2024-03-23T12:03:17;15.32;;;1.63;;
83719;SDS011;73702;49.668;8.544;2024-03-23T12:05:46;10.73;;;1.40;;
83719;SDS011;73702;49.668;8.544;2024-03-23T12:08:15;12.50;;;1.23;;
83719;SDS011;73702;49.668;8.544;2024-03-23T12:10:43;27.45;;;2.63;;
83719;SDS011;73702;49.668;8.544;2024-03-23T12:13:08;13.40;;;1.65;;
83719;SDS011;73702;49.668;8.544;2024-03-23T12:15:34;17.75;;;2.17;;
83719;SDS011;73702;49.668;8.544;2024-03-23T12:18:06;15.15;;;2.03;;
83719;SDS011;73702;49.668;8.544;2024-03-23T12:20:32;22.13;;;2.63;;
83719;SDS011;73702;49.668;8.544;2024-03-23T12:23:07;21.42;;;2.13;;
83719;SDS011;73702;49.668;8.544;2024-03-23T12:25:34;27.10;;;2.97;;
83719;SDS011;73702;49.668;8.544;2024-03-23T12:27:59;12.77;;;1.55;;
83719;SDS011;73702;49.668;8.544;2024-03-23T12:30:24;12.75;;;1.92;;
83719;SDS011;73702;49.668;8.544;2024-03-23T12:32:50;20.38;;;2.38;;
83719;SDS011;73702;49.668;8.544;2024-03-23T12:35:15;17.95;;;2.03;;
83719;SDS011;73702;49.668;8.544;2024-03-23T12:37:41;24.00;;;2.63;;
83719;SDS011;73702;49.668;8.544;2024-03-23T12:40:06;19.23;;;3.55;;
83719;SDS011;73702;49.668;8.544;2024-03-23T12:42:32;20.63;;;2.63;;
83719;SDS011;73702;49.668;8.544;2024-03-23T12:44:57;18.60;;;2.17;;
83719;SDS011;73702;49.668;8.544;2024-03-23T12:47:23;14.00;;;1.67;;
83719;SDS011;73702;49.668;8.544;2024-03-23T12:49:48;16.33;;;1.85;;
83719;SDS011;73702;49.668;8.544;2024-03-23T12:52:14;14.77;;;2.22;;
83719;SDS011;73702;49.668;8.544;2024-03-23T12:54:39;29.35;;;3.40;;
83719;SDS011;73702;49.668;8.544;2024-03-23T12:57:04;14.98;;;1.80;;
83719;SDS011;73702;49.668;8.544;2024-03-23T12:59:30;13.32;;;1.55;;
83719;SDS011;73702;49.668;8.544;2024-03-23T13:01:55;9.75;;;1.45;;
83719;SDS011;73702;49.668;8.544;2024-03-23T13:04:20;18.83;;;1.83;;
83719;SDS011;73702;49.668;8.544;2024-03-23T13:06:46;23.02;;;2.42;;
83719;SDS011;73702;49.668;8.544;2024-03-23T13:09:11;23.05;;;2.13;;
83719;SDS011;73702;49.668;8.544;2024-03-23T13:11:37;15.02;;;2.05;;
83719;SDS011;73702;49.668;8.544;2024-03-23T13:14:02;12.20;;;1.27;;
83719;SDS011;73702;49.668;8.544;2024-03-23T13:16:27;16.00;;;2.13;;
83719;SDS011;73702;49.668;8.544;2024-03-23T13:18:53;17.52;;;1.60;;
83719;SDS011;73702;49.668;8.544;2024-03-23T13:21:18;13.85;;;1.90;;
83719;SDS011;73702;49.668;8.544;2024-03-23T13:23:46;28.83;;;2.85;;
83719;SDS011;73702;49.668;8.544;2024-03-23T13:26:11;15.50;;;1.70;;
83719;SDS011;73702;49.668;8.544;2024-03-23T13:28:37;21.77;;;2.20;;
83719;SDS011;73702;49.668;8.544;2024-03-23T13:31:02;13.38;;;1.75;;
83719;SDS011;73702;49.668;8.544;2024-03-23T13:33:27;22.50;;;2.15;;
83719;SDS011;73702;49.668;8.544;2024-03-23T13:35:53;15.40;;;1.67;;
83719;SDS011;73702;49.668;8.544;2024-03-23T13:38:19;19.48;;;2.00;;
83719;SDS011;73702;49.668;8.544;2024-03-23T13:40:54;21.95;;;2.00;;
83719;SDS011;73702;49.668;8.544;2024-03-23T13:43:20;11.48;;;1.38;;
83719;SDS011;73702;49.668;8.544;2024-03-23T13:45:49;26.63;;;2.83;;
83719;SDS011;73702;49.668;8.544;2024-03-23T13:48:16;16.42;;;1.70;;
83719;SDS011;73702;49.668;8.544;2024-03-23T13:50:41;27.00;;;2.50;;
83719;SDS011;73702;49.668;8.544;2024-03-23T13:53:07;13.25;;;1.48;;
83719;SDS011;73702;49.668;8.544;2024-03-23T13:55:32;17.25;;;1.65;;
83719;SDS011;73702;49.668;8.544;2024-03-23T13:57:58;12.15;;;1.23;;
83719;SDS011;73702;49.668;8.544;2024-03-23T14:00:23;12.82;;;1.33;;
83719;SDS011;73702;49.668;8.544;2024-03-23T14:02:48;25.48;;;2.33;;
83719;SDS011;73702;49.668;8.544;2024-03-23T14:05:14;14.38;;;1.35;;
83719;SDS011;73702;49.668;8.544;2024-03-23T14:07:39;13.50;;;1.48;;
83719;SDS011;73702;49.668;8.544;2024-03-23T14:10:05;11.75;;;1.10;;
83719;SDS011;73702;49.668;8.544;2024-03-23T14:12:30;14.02;;;1.52;;
83719;SDS011;73702;49.668;8.544;2024-03-23T14:14:56;12.77;;;1.00;;
83719;SDS011;73702;49.668;8.544;2024-03-23T14:17:21;16.95;;;1.77;;
83719;SDS011;73702;49.668;8.544;2024-03-23T14:19:46;10.80;;;1.13;;
83719;SDS011;73702;49.668;8.544;2024-03-23T14:22:12;17.02;;;1.63;;
83719;SDS011;73702;49.668;8.544;2024-03-23T14:24:37;12.25;;;1.73;;
83719;SDS011;73702;49.668;8.544;2024-03-23T14:27:03;14.57;;;1.42;;
83719;SDS011;73702;49.668;8.544;2024-03-23T14:29:28;15.05;;;1.63;;
83719;SDS011;73702;49.668;8.544;2024-03-23T14:31:53;20.05;;;2.08;;
83719;SDS011;73702;49.668;8.544;2024-03-23T14:34:19;16.42;;;1.52;;
83719;SDS011;73702;49.668;8.544;2024-03-23T14:36:44;21.25;;;1.77;;
83719;SDS011;73702;49.668;8.544;2024-03-23T14:39:09;13.13;;;1.23;;
83719;SDS011;73702;49.668;8.544;2024-03-23T14:41:35;14.50;;;1.35;;
83719;SDS011;73702;49.668;8.544;2024-03-23T14:44:00;12.18;;;1.02;;
83719;SDS011;73702;49.668;8.544;2024-03-23T14:46:26;13.25;;;1.13;;
83719;SDS011;73702;49.668;8.544;2024-03-23T14:48:51;18.77;;;1.88;;
83719;SDS011;73702;49.668;8.544;2024-03-23T14:51:16;17.40;;;1.63;;
83719;SDS011;73702;49.668;8.544;2024-03-23T14:53:45;17.30;;;1.85;;
83719;SDS011;73702;49.668;8.544;2024-03-23T14:56:10;12.85;;;1.40;;
83719;SDS011;73702;49.668;8.544;2024-03-23T14:58:36;11.63;;;1.13;;
83719;SDS011;73702;49.668;8.544;2024-03-23T15:03:27;16.75;;;1.60;;
83719;SDS011;73702;49.668;8.544;2024-03-23T15:05:53;25.23;;;2.15;;
83719;SDS011;73702;49.668;8.544;2024-03-23T15:08:18;17.20;;;1.75;;
83719;SDS011;73702;49.668;8.544;2024-03-23T15:10:43;13.30;;;1.23;;
83719;SDS011;73702;49.668;8.544;2024-03-23T15:13:09;20.00;;;1.88;;
83719;SDS011;73702;49.668;8.544;2024-03-23T15:15:38;14.95;;;1.55;;
83719;SDS011;73702;49.668;8.544;2024-03-23T15:18:03;16.38;;;1.60;;
83719;SDS011;73702;49.668;8.544;2024-03-23T15:20:29;19.15;;;1.83;;
83719;SDS011;73702;49.668;8.544;2024-03-23T15:22:54;15.77;;;1.58;;
83719;SDS011;73702;49.668;8.544;2024-03-23T15:25:19;13.45;;;1.50;;
83719;SDS011;73702;49.668;8.544;2024-03-23T15:27:45;13.27;;;1.25;;